AirNav   Pilot Hours Calculator
 
 998 users online  

6NC5 Thompson Farms Airport
Whitakers, North Carolina, USA

GOING TO WHITAKERS?


FAA INFORMATION EFFECTIVE 03 NOVEMBER 2022

Location

FAA Identifier: 6NC5
Lat/Long: 36-01-29.9000N 077-39-33.8200W
36-01.498333N 077-39.563667W
36.0249722,-77.6593944
(estimated)
Elevation: 100 ft. / 30 m (estimated)
Variation: 08W (1980)
From city: 5 miles S of WHITAKERS, NC
Time zone: UTC -5 (UTC -4 during Daylight Saving Time)
Zip code: 27891

Airport Operations

Airport use: Private use. Permission required prior to landing
Activation date: 11/1986
Control tower: no
ARTCC: WASHINGTON CENTER
FSS: RALEIGH FLIGHT SERVICE STATION
Attendance: 0800-1700
Wind indicator: yes
Segmented circle: no

Airport Communications

WX AWOS-3P at ETC (8 nm SE): 119.575 (252-641-1640)
WX ASOS at RWI (15 nm SW): 118.875 (252-446-0732)
WX AWOS-3PT at IXA (18 nm N): 119.975 (252-583-3446)

Nearby radio navigation aids

VOR radial/distance  VOR name  Freq  Var
TYIr042/3.6TAR RIVER VORTAC117.8005W
ISOr358/39.5KINSTON VORTAC117.5005W

 
NDB name  Hdg/Dist  Freq  Var  ID
ALWOOD333/23.723009WAQE .- --.- .

Airport Services

Fuel available: 100

Runway Information

Runway 3/21

Dimensions: 1800 x 75 ft. / 549 x 23 m
Surface: turf
RUNWAY 3  RUNWAY 21
Traffic pattern: leftleft
Obstructions: none50 ft. bldg

Airport Ownership and Management from official FAA records

Ownership: Privately-owned
Owner: HAROLD THOMPSON
ROUTE 1 BOX 360-D
WHITAKERS, NC 27891
Phone 252-437-7751
Manager: HAROLD THOMPSON
ROUTE 1 BOX 360-D
WHITAKERS, NC 27891
Phone 252-437-0895

Airport Operational Statistics

Aircraft based on the field: 2
Single engine airplanes: 2
    

Additional Remarks

FOR CD CTC WASHINGTON ARTCC AT 703-771-3587.

Instrument Procedures

There are no published instrument procedures at 6NC5.

Some nearby airports with instrument procedures:

KETC - Tarboro-Edgecombe Airport (8 nm SE)
KRWI - Rocky Mount/Wilson Regional Airport (15 nm SW)
KIXA - Halifax/Northampton Regional Airport (18 nm N)
W03 - Wilson Industrial Air Center Airport (21 nm SW)
KMCZ - Martin County Airport (25 nm SE)
 
Loc | Ops | Rwys | IFR | FBO | Links
Com | Nav | Svcs | Stats | Notes
Area around 6NC5 (Thompson Farms Airport)
 
Road maps at: MapQuest Bing Google
 
Aerial photo
No photo
 
Sectional chart

 
Airport distance calculator
Flying to Thompson Farms Airport? Find the distance to fly.

From to 6NC5

Sunrise and sunset
Times for 28-Nov-2022
 Local
(UTC-5)
 Zulu
(UTC)
Morning civil twilight06:3311:33
Sunrise07:0112:01
Sunset16:5621:56
Evening civil twilight17:2422:24

Current date and time
Zulu (UTC)  28-Nov-2022 13:23:23
Local (UTC-5)  28-Nov-2022 08:23:23
 
METAR
KETC 
8nm SE 
281255Z AUTO 24006KT 10SM CLR 12/07 A2982 RMK AO2 T01230073
KRWI 
16nm SW 
281253Z AUTO 21005KT 10SM CLR 11/07 A2983 RMK AO2 SLP101 T01110067 $
KIXA 
18nm N 
281255Z AUTO 25009G14KT 220V280 10SM CLR 11/08 A2980 RMK AO2
TAF
KRWI 
16nm SW 
281149Z 2812/2912 26007KT P6SM SCT250 FM281800 28009KT P6SM BKN050 FM282200 VRB04KT P6SM BKN250
NOTAMs
Click for the latest NOTAMs
NOTAMs are issued by the DoD/FAA and will open in a separate window not controlled by AirNav.

 

 
 

Would you like to see your business listed on this page?

 If your business provides an interesting product or service to pilots, flight crews, aircraft, or users of the Thompson Farms Airport, you should consider listing it here.  To start the listing process, click on the button below
 
Add a business
 

Other Pages about Thompson Farms Airport

Update a link
 
Copyright © AirNav, LLC. All rights reserved. Privacy Policy  Contact